sensor_id;sensor_type;location;lat;lon;timestamp;P1;durP1;ratioP1;P2;durP2;ratioP2
16346;SDS011;8283;48.504;13.734;2024-03-02T00:01:14;16.90;;;9.68;;
16346;SDS011;8283;48.504;13.734;2024-03-02T00:03:33;18.38;;;10.07;;
16346;SDS011;8283;48.504;13.734;2024-03-02T00:05:53;15.60;;;9.10;;
16346;SDS011;8283;48.504;13.734;2024-03-02T00:08:13;18.77;;;9.82;;
16346;SDS011;8283;48.504;13.734;2024-03-02T00:10:39;16.48;;;10.00;;
16346;SDS011;8283;48.504;13.734;2024-03-02T00:12:58;17.55;;;9.70;;
16346;SDS011;8283;48.504;13.734;2024-03-02T00:17:43;18.50;;;10.27;;
16346;SDS011;8283;48.504;13.734;2024-03-02T00:20:02;19.80;;;10.25;;
16346;SDS011;8283;48.504;13.734;2024-03-02T00:22:22;17.08;;;10.73;;
16346;SDS011;8283;48.504;13.734;2024-03-02T00:24:42;15.93;;;8.93;;
16346;SDS011;8283;48.504;13.734;2024-03-02T00:27:01;19.25;;;10.18;;
16346;SDS011;8283;48.504;13.734;2024-03-02T00:29:23;18.20;;;9.73;;
16346;SDS011;8283;48.504;13.734;2024-03-02T00:31:43;19.63;;;11.25;;
16346;SDS011;8283;48.504;13.734;2024-03-02T00:34:03;16.85;;;10.25;;
16346;SDS011;8283;48.504;13.734;2024-03-02T00:36:25;19.13;;;10.00;;
16346;SDS011;8283;48.504;13.734;2024-03-02T00:38:49;14.88;;;9.50;;
16346;SDS011;8283;48.504;13.734;2024-03-02T00:41:11;15.63;;;9.50;;
16346;SDS011;8283;48.504;13.734;2024-03-02T00:46:18;14.88;;;9.23;;
16346;SDS011;8283;48.504;13.734;2024-03-02T00:48:38;15.00;;;9.13;;
16346;SDS011;8283;48.504;13.734;2024-03-02T00:51:07;15.88;;;9.40;;
16346;SDS011;8283;48.504;13.734;2024-03-02T00:53:26;16.92;;;8.85;;
16346;SDS011;8283;48.504;13.734;2024-03-02T00:55:46;14.05;;;8.25;;
16346;SDS011;8283;48.504;13.734;2024-03-02T00:58:07;13.77;;;8.70;;
16346;SDS011;8283;48.504;13.734;2024-03-02T01:00:26;17.45;;;9.52;;
16346;SDS011;8283;48.504;13.734;2024-03-02T01:02:46;16.17;;;9.93;;
16346;SDS011;8283;48.504;13.734;2024-03-02T01:05:05;14.85;;;9.18;;
16346;SDS011;8283;48.504;13.734;2024-03-02T01:07:26;17.58;;;9.88;;
16346;SDS011;8283;48.504;13.734;2024-03-02T01:09:46;17.40;;;9.65;;
16346;SDS011;8283;48.504;13.734;2024-03-02T01:12:05;17.75;;;9.95;;
16346;SDS011;8283;48.504;13.734;2024-03-02T01:14:25;17.73;;;9.75;;
16346;SDS011;8283;48.504;13.734;2024-03-02T01:16:44;15.77;;;9.80;;
16346;SDS011;8283;48.504;13.734;2024-03-02T01:19:03;16.75;;;9.98;;
16346;SDS011;8283;48.504;13.734;2024-03-02T01:21:23;15.45;;;9.48;;
16346;SDS011;8283;48.504;13.734;2024-03-02T01:23:42;19.58;;;10.98;;
16346;SDS011;8283;48.504;13.734;2024-03-02T01:26:02;15.88;;;9.80;;
16346;SDS011;8283;48.504;13.734;2024-03-02T01:28:22;17.30;;;9.85;;
16346;SDS011;8283;48.504;13.734;2024-03-02T01:30:41;18.52;;;9.90;;
16346;SDS011;8283;48.504;13.734;2024-03-02T01:33:01;19.15;;;10.20;;
16346;SDS011;8283;48.504;13.734;2024-03-02T01:35:20;16.13;;;9.70;;
16346;SDS011;8283;48.504;13.734;2024-03-02T01:37:40;16.67;;;9.68;;
16346;SDS011;8283;48.504;13.734;2024-03-02T01:40:00;15.80;;;9.83;;
16346;SDS011;8283;48.504;13.734;2024-03-02T01:42:19;16.75;;;9.90;;
16346;SDS011;8283;48.504;13.734;2024-03-02T01:44:39;18.35;;;10.07;;
16346;SDS011;8283;48.504;13.734;2024-03-02T01:46:59;16.15;;;10.23;;
16346;SDS011;8283;48.504;13.734;2024-03-02T01:49:18;16.77;;;9.73;;
16346;SDS011;8283;48.504;13.734;2024-03-02T01:51:37;16.55;;;10.00;;
16346;SDS011;8283;48.504;13.734;2024-03-02T01:53:57;17.30;;;10.02;;
16346;SDS011;8283;48.504;13.734;2024-03-02T01:56:16;15.60;;;8.90;;
16346;SDS011;8283;48.504;13.734;2024-03-02T01:58:36;16.90;;;10.05;;
16346;SDS011;8283;48.504;13.734;2024-03-02T02:00:55;19.48;;;10.13;;
16346;SDS011;8283;48.504;13.734;2024-03-02T02:03:15;16.08;;;9.38;;
16346;SDS011;8283;48.504;13.734;2024-03-02T02:05:34;17.63;;;9.15;;
16346;SDS011;8283;48.504;13.734;2024-03-02T02:07:54;16.08;;;9.07;;
16346;SDS011;8283;48.504;13.734;2024-03-02T02:10:14;15.95;;;9.73;;
16346;SDS011;8283;48.504;13.734;2024-03-02T02:12:34;15.98;;;9.45;;
16346;SDS011;8283;48.504;13.734;2024-03-02T02:14:54;17.17;;;10.02;;
16346;SDS011;8283;48.504;13.734;2024-03-02T02:17:13;18.10;;;9.23;;
16346;SDS011;8283;48.504;13.734;2024-03-02T02:19:35;16.67;;;9.60;;
16346;SDS011;8283;48.504;13.734;2024-03-02T02:21:55;19.50;;;10.48;;
16346;SDS011;8283;48.504;13.734;2024-03-02T02:24:14;17.40;;;9.95;;
16346;SDS011;8283;48.504;13.734;2024-03-02T02:26:33;18.67;;;10.80;;
16346;SDS011;8283;48.504;13.734;2024-03-02T02:28:53;21.85;;;10.98;;
16346;SDS011;8283;48.504;13.734;2024-03-02T02:31:13;19.30;;;10.40;;
16346;SDS011;8283;48.504;13.734;2024-03-02T02:33:32;17.45;;;10.18;;
16346;SDS011;8283;48.504;13.734;2024-03-02T02:35:52;16.98;;;9.75;;
16346;SDS011;8283;48.504;13.734;2024-03-02T02:38:11;19.50;;;10.90;;
16346;SDS011;8283;48.504;13.734;2024-03-02T02:40:30;17.40;;;9.57;;
16346;SDS011;8283;48.504;13.734;2024-03-02T02:42:50;19.95;;;10.15;;
16346;SDS011;8283;48.504;13.734;2024-03-02T02:45:12;18.65;;;10.07;;
16346;SDS011;8283;48.504;13.734;2024-03-02T02:47:33;18.02;;;9.50;;
16346;SDS011;8283;48.504;13.734;2024-03-02T02:49:54;19.42;;;10.48;;
16346;SDS011;8283;48.504;13.734;2024-03-02T02:52:13;21.85;;;10.15;;
16346;SDS011;8283;48.504;13.734;2024-03-02T02:54:33;18.73;;;10.65;;
16346;SDS011;8283;48.504;13.734;2024-03-02T02:56:52;16.75;;;9.90;;
16346;SDS011;8283;48.504;13.734;2024-03-02T02:59:11;19.63;;;10.35;;
16346;SDS011;8283;48.504;13.734;2024-03-02T03:01:30;19.25;;;10.73;;
16346;SDS011;8283;48.504;13.734;2024-03-02T03:03:49;20.90;;;10.95;;
16346;SDS011;8283;48.504;13.734;2024-03-02T03:06:09;17.83;;;10.98;;
16346;SDS011;8283;48.504;13.734;2024-03-02T03:08:28;19.88;;;11.30;;
16346;SDS011;8283;48.504;13.734;2024-03-02T03:10:48;19.00;;;10.10;;
16346;SDS011;8283;48.504;13.734;2024-03-02T03:13:08;20.40;;;10.37;;
16346;SDS011;8283;48.504;13.734;2024-03-02T03:15:27;17.70;;;10.80;;
16346;SDS011;8283;48.504;13.734;2024-03-02T03:17:46;19.88;;;9.88;;
16346;SDS011;8283;48.504;13.734;2024-03-02T03:20:06;19.38;;;10.25;;
16346;SDS011;8283;48.504;13.734;2024-03-02T03:22:28;20.02;;;10.02;;
16346;SDS011;8283;48.504;13.734;2024-03-02T03:24:48;17.05;;;9.93;;
16346;SDS011;8283;48.504;13.734;2024-03-02T03:27:08;16.17;;;9.27;;
16346;SDS011;8283;48.504;13.734;2024-03-02T03:29:28;18.83;;;9.48;;
16346;SDS011;8283;48.504;13.734;2024-03-02T03:31:47;18.17;;;10.73;;
16346;SDS011;8283;48.504;13.734;2024-03-02T03:34:06;21.08;;;10.13;;
16346;SDS011;8283;48.504;13.734;2024-03-02T03:36:26;18.30;;;10.63;;
16346;SDS011;8283;48.504;13.734;2024-03-02T03:38:45;18.73;;;10.20;;
16346;SDS011;8283;48.504;13.734;2024-03-02T03:41:05;21.75;;;10.82;;
16346;SDS011;8283;48.504;13.734;2024-03-02T03:43:24;18.20;;;10.07;;
16346;SDS011;8283;48.504;13.734;2024-03-02T03:45:43;20.42;;;10.70;;
16346;SDS011;8283;48.504;13.734;2024-03-02T03:48:03;16.73;;;9.43;;
16346;SDS011;8283;48.504;13.734;2024-03-02T03:50:23;16.63;;;9.02;;
16346;SDS011;8283;48.504;13.734;2024-03-02T03:52:42;15.80;;;9.63;;
16346;SDS011;8283;48.504;13.734;2024-03-02T03:55:02;16.77;;;8.43;;
16346;SDS011;8283;48.504;13.734;2024-03-02T03:57:23;17.48;;;10.05;;
16346;SDS011;8283;48.504;13.734;2024-03-02T03:59:43;16.95;;;9.70;;
16346;SDS011;8283;48.504;13.734;2024-03-02T04:02:03;15.75;;;9.73;;
16346;SDS011;8283;48.504;13.734;2024-03-02T04:04:23;15.10;;;8.63;;
16346;SDS011;8283;48.504;13.734;2024-03-02T04:06:42;17.88;;;9.63;;
16346;SDS011;8283;48.504;13.734;2024-03-02T04:09:01;21.52;;;10.90;;
16346;SDS011;8283;48.504;13.734;2024-03-02T04:11:22;17.08;;;9.60;;
16346;SDS011;8283;48.504;13.734;2024-03-02T04:13:42;16.30;;;10.05;;
16346;SDS011;8283;48.504;13.734;2024-03-02T04:16:01;15.85;;;9.38;;
16346;SDS011;8283;48.504;13.734;2024-03-02T04:18:22;16.40;;;10.15;;
16346;SDS011;8283;48.504;13.734;2024-03-02T04:20:42;18.58;;;10.40;;
16346;SDS011;8283;48.504;13.734;2024-03-02T04:23:02;20.05;;;10.52;;
16346;SDS011;8283;48.504;13.734;2024-03-02T04:25:21;17.05;;;9.65;;
16346;SDS011;8283;48.504;13.734;2024-03-02T04:27:41;18.58;;;9.48;;
16346;SDS011;8283;48.504;13.734;2024-03-02T04:30:00;16.05;;;8.90;;
16346;SDS011;8283;48.504;13.734;2024-03-02T04:32:19;18.67;;;9.90;;
16346;SDS011;8283;48.504;13.734;2024-03-02T04:34:38;19.45;;;9.90;;
16346;SDS011;8283;48.504;13.734;2024-03-02T04:36:57;16.40;;;9.68;;
16346;SDS011;8283;48.504;13.734;2024-03-02T04:39:17;18.92;;;9.85;;
16346;SDS011;8283;48.504;13.734;2024-03-02T04:41:36;18.35;;;10.88;;
16346;SDS011;8283;48.504;13.734;2024-03-02T04:43:56;15.55;;;9.48;;
16346;SDS011;8283;48.504;13.734;2024-03-02T04:46:15;16.45;;;10.23;;
16346;SDS011;8283;48.504;13.734;2024-03-02T04:48:34;19.88;;;10.20;;
16346;SDS011;8283;48.504;13.734;2024-03-02T04:50:54;16.73;;;9.57;;
16346;SDS011;8283;48.504;13.734;2024-03-02T04:53:13;17.17;;;9.52;;
16346;SDS011;8283;48.504;13.734;2024-03-02T04:55:33;18.40;;;10.27;;
16346;SDS011;8283;48.504;13.734;2024-03-02T04:57:58;17.45;;;10.13;;
16346;SDS011;8283;48.504;13.734;2024-03-02T05:00:17;16.33;;;9.50;;
16346;SDS011;8283;48.504;13.734;2024-03-02T05:02:37;17.35;;;9.82;;
16346;SDS011;8283;48.504;13.734;2024-03-02T05:04:56;18.42;;;10.73;;
16346;SDS011;8283;48.504;13.734;2024-03-02T05:07:16;16.75;;;10.30;;
16346;SDS011;8283;48.504;13.734;2024-03-02T05:09:35;18.05;;;11.05;;
16346;SDS011;8283;48.504;13.734;2024-03-02T05:11:54;18.27;;;10.10;;
16346;SDS011;8283;48.504;13.734;2024-03-02T05:14:29;17.77;;;10.15;;
16346;SDS011;8283;48.504;13.734;2024-03-02T05:16:48;20.60;;;11.55;;
16346;SDS011;8283;48.504;13.734;2024-03-02T05:19:08;14.40;;;8.40;;
16346;SDS011;8283;48.504;13.734;2024-03-02T05:21:27;19.80;;;10.93;;
16346;SDS011;8283;48.504;13.734;2024-03-02T05:23:46;16.73;;;10.23;;
16346;SDS011;8283;48.504;13.734;2024-03-02T05:26:05;14.63;;;8.82;;
16346;SDS011;8283;48.504;13.734;2024-03-02T05:28:25;18.17;;;10.20;;
16346;SDS011;8283;48.504;13.734;2024-03-02T05:30:44;19.17;;;10.18;;
16346;SDS011;8283;48.504;13.734;2024-03-02T05:33:05;21.83;;;11.38;;
16346;SDS011;8283;48.504;13.734;2024-03-02T05:35:24;18.77;;;9.90;;
16346;SDS011;8283;48.504;13.734;2024-03-02T05:37:44;15.90;;;9.60;;
16346;SDS011;8283;48.504;13.734;2024-03-02T05:40:03;18.27;;;11.00;;
16346;SDS011;8283;48.504;13.734;2024-03-02T05:42:24;16.42;;;10.75;;
16346;SDS011;8283;48.504;13.734;2024-03-02T05:44:44;19.35;;;10.85;;
16346;SDS011;8283;48.504;13.734;2024-03-02T05:47:03;16.23;;;9.45;;
16346;SDS011;8283;48.504;13.734;2024-03-02T05:49:23;18.42;;;9.88;;
16346;SDS011;8283;48.504;13.734;2024-03-02T05:51:42;18.52;;;10.20;;
16346;SDS011;8283;48.504;13.734;2024-03-02T05:54:01;17.75;;;9.60;;
16346;SDS011;8283;48.504;13.734;2024-03-02T05:56:21;16.83;;;10.02;;
16346;SDS011;8283;48.504;13.734;2024-03-02T05:58:41;20.90;;;10.75;;
16346;SDS011;8283;48.504;13.734;2024-03-02T06:01:19;18.15;;;10.23;;
16346;SDS011;8283;48.504;13.734;2024-03-02T06:03:38;20.20;;;9.75;;
16346;SDS011;8283;48.504;13.734;2024-03-02T06:05:58;17.88;;;10.13;;
16346;SDS011;8283;48.504;13.734;2024-03-02T06:08:17;22.10;;;12.38;;
16346;SDS011;8283;48.504;13.734;2024-03-02T06:10:36;17.77;;;10.25;;
16346;SDS011;8283;48.504;13.734;2024-03-02T06:12:56;16.40;;;8.70;;
16346;SDS011;8283;48.504;13.734;2024-03-02T06:15:15;16.42;;;10.15;;
16346;SDS011;8283;48.504;13.734;2024-03-02T06:17:35;17.83;;;9.45;;
16346;SDS011;8283;48.504;13.734;2024-03-02T06:19:55;15.40;;;8.20;;
16346;SDS011;8283;48.504;13.734;2024-03-02T06:22:14;17.60;;;9.43;;
16346;SDS011;8283;48.504;13.734;2024-03-02T06:24:33;15.88;;;8.73;;
16346;SDS011;8283;48.504;13.734;2024-03-02T06:26:54;16.57;;;9.00;;
16346;SDS011;8283;48.504;13.734;2024-03-02T06:29:13;14.73;;;8.77;;
16346;SDS011;8283;48.504;13.734;2024-03-02T06:31:32;13.98;;;7.10;;
16346;SDS011;8283;48.504;13.734;2024-03-02T06:33:51;15.32;;;8.15;;
16346;SDS011;8283;48.504;13.734;2024-03-02T06:36:11;14.65;;;8.13;;
16346;SDS011;8283;48.504;13.734;2024-03-02T06:38:31;15.88;;;8.68;;
16346;SDS011;8283;48.504;13.734;2024-03-02T06:40:53;11.70;;;7.38;;
16346;SDS011;8283;48.504;13.734;2024-03-02T06:43:14;14.85;;;8.13;;
16346;SDS011;8283;48.504;13.734;2024-03-02T06:45:33;12.52;;;7.28;;
16346;SDS011;8283;48.504;13.734;2024-03-02T06:47:53;12.80;;;7.18;;
16346;SDS011;8283;48.504;13.734;2024-03-02T06:50:12;14.13;;;8.27;;
16346;SDS011;8283;48.504;13.734;2024-03-02T06:52:31;14.20;;;8.57;;
16346;SDS011;8283;48.504;13.734;2024-03-02T06:54:51;14.32;;;8.13;;
16346;SDS011;8283;48.504;13.734;2024-03-02T06:57:10;14.10;;;7.50;;
16346;SDS011;8283;48.504;13.734;2024-03-02T06:59:30;15.50;;;8.90;;
16346;SDS011;8283;48.504;13.734;2024-03-02T07:01:49;16.42;;;8.38;;
16346;SDS011;8283;48.504;13.734;2024-03-02T07:04:08;14.88;;;8.65;;
16346;SDS011;8283;48.504;13.734;2024-03-02T07:06:28;12.95;;;7.35;;
16346;SDS011;8283;48.504;13.734;2024-03-02T07:08:47;16.55;;;8.25;;
16346;SDS011;8283;48.504;13.734;2024-03-02T07:11:06;14.07;;;7.82;;
16346;SDS011;8283;48.504;13.734;2024-03-02T07:13:26;12.82;;;7.07;;
16346;SDS011;8283;48.504;13.734;2024-03-02T07:15:45;15.52;;;7.82;;
16346;SDS011;8283;48.504;13.734;2024-03-02T07:18:23;15.45;;;8.52;;
16346;SDS011;8283;48.504;13.734;2024-03-02T07:20:42;13.73;;;7.57;;
16346;SDS011;8283;48.504;13.734;2024-03-02T07:23:02;15.82;;;8.15;;
16346;SDS011;8283;48.504;13.734;2024-03-02T07:25:21;18.13;;;9.32;;
16346;SDS011;8283;48.504;13.734;2024-03-02T07:27:41;13.02;;;7.30;;
16346;SDS011;8283;48.504;13.734;2024-03-02T07:30:02;16.30;;;8.35;;
16346;SDS011;8283;48.504;13.734;2024-03-02T07:32:21;12.48;;;7.50;;
16346;SDS011;8283;48.504;13.734;2024-03-02T07:34:41;14.70;;;8.50;;
16346;SDS011;8283;48.504;13.734;2024-03-02T07:37:00;16.23;;;8.90;;
16346;SDS011;8283;48.504;13.734;2024-03-02T07:39:20;13.63;;;8.13;;
16346;SDS011;8283;48.504;13.734;2024-03-02T07:41:40;13.48;;;7.95;;
16346;SDS011;8283;48.504;13.734;2024-03-02T07:43:59;15.13;;;9.10;;
16346;SDS011;8283;48.504;13.734;2024-03-02T07:46:18;16.08;;;9.48;;
16346;SDS011;8283;48.504;13.734;2024-03-02T07:48:38;15.70;;;9.00;;
16346;SDS011;8283;48.504;13.734;2024-03-02T07:50:57;16.58;;;9.13;;
16346;SDS011;8283;48.504;13.734;2024-03-02T07:53:17;15.35;;;9.48;;
16346;SDS011;8283;48.504;13.734;2024-03-02T07:55:36;15.48;;;8.82;;
16346;SDS011;8283;48.504;13.734;2024-03-02T07:57:59;15.18;;;8.40;;
16346;SDS011;8283;48.504;13.734;2024-03-02T08:00:19;15.70;;;9.80;;
16346;SDS011;8283;48.504;13.734;2024-03-02T08:02:39;14.80;;;8.35;;
16346;SDS011;8283;48.504;13.734;2024-03-02T08:04:59;14.38;;;8.70;;
16346;SDS011;8283;48.504;13.734;2024-03-02T08:07:19;18.00;;;9.52;;
16346;SDS011;8283;48.504;13.734;2024-03-02T08:09:38;15.60;;;8.82;;
16346;SDS011;8283;48.504;13.734;2024-03-02T08:11:57;16.17;;;9.35;;
16346;SDS011;8283;48.504;13.734;2024-03-02T08:14:17;14.98;;;9.13;;
16346;SDS011;8283;48.504;13.734;2024-03-02T08:16:36;16.10;;;9.23;;
16346;SDS011;8283;48.504;13.734;2024-03-02T08:18:56;16.17;;;8.77;;
16346;SDS011;8283;48.504;13.734;2024-03-02T08:21:16;16.17;;;9.70;;
16346;SDS011;8283;48.504;13.734;2024-03-02T08:23:36;16.42;;;9.73;;
16346;SDS011;8283;48.504;13.734;2024-03-02T08:25:56;16.95;;;9.52;;
16346;SDS011;8283;48.504;13.734;2024-03-02T08:28:15;17.52;;;9.38;;
16346;SDS011;8283;48.504;13.734;2024-03-02T08:30:35;17.60;;;9.55;;
16346;SDS011;8283;48.504;13.734;2024-03-02T08:32:54;18.42;;;8.90;;
16346;SDS011;8283;48.504;13.734;2024-03-02T08:35:13;20.25;;;10.10;;
16346;SDS011;8283;48.504;13.734;2024-03-02T08:37:33;16.92;;;10.20;;
16346;SDS011;8283;48.504;13.734;2024-03-02T08:39:52;16.90;;;9.93;;
16346;SDS011;8283;48.504;13.734;2024-03-02T08:42:11;16.98;;;9.50;;
16346;SDS011;8283;48.504;13.734;2024-03-02T08:44:31;18.52;;;10.02;;
16346;SDS011;8283;48.504;13.734;2024-03-02T08:46:50;17.30;;;9.23;;
16346;SDS011;8283;48.504;13.734;2024-03-02T08:49:10;18.25;;;10.60;;
16346;SDS011;8283;48.504;13.734;2024-03-02T08:51:29;18.27;;;10.98;;
16346;SDS011;8283;48.504;13.734;2024-03-02T08:53:49;16.08;;;9.88;;
16346;SDS011;8283;48.504;13.734;2024-03-02T08:56:08;19.33;;;10.82;;
16346;SDS011;8283;48.504;13.734;2024-03-02T08:58:27;17.85;;;10.23;;
16346;SDS011;8283;48.504;13.734;2024-03-02T09:00:47;16.98;;;10.45;;
16346;SDS011;8283;48.504;13.734;2024-03-02T09:03:06;18.85;;;10.73;;
16346;SDS011;8283;48.504;13.734;2024-03-02T09:05:26;19.38;;;11.18;;
16346;SDS011;8283;48.504;13.734;2024-03-02T09:07:45;18.65;;;11.02;;
16346;SDS011;8283;48.504;13.734;2024-03-02T09:10:05;18.75;;;10.60;;
16346;SDS011;8283;48.504;13.734;2024-03-02T09:12:25;17.60;;;11.23;;
16346;SDS011;8283;48.504;13.734;2024-03-02T09:14:45;19.75;;;11.93;;
16346;SDS011;8283;48.504;13.734;2024-03-02T09:17:05;17.40;;;10.93;;
16346;SDS011;8283;48.504;13.734;2024-03-02T09:19:25;18.65;;;11.68;;
16346;SDS011;8283;48.504;13.734;2024-03-02T09:21:44;19.75;;;12.18;;
16346;SDS011;8283;48.504;13.734;2024-03-02T09:24:04;21.13;;;12.80;;
16346;SDS011;8283;48.504;13.734;2024-03-02T09:26:25;18.85;;;11.40;;
16346;SDS011;8283;48.504;13.734;2024-03-02T09:28:44;21.90;;;13.05;;
16346;SDS011;8283;48.504;13.734;2024-03-02T09:31:04;19.17;;;12.07;;
16346;SDS011;8283;48.504;13.734;2024-03-02T09:33:23;19.50;;;12.38;;
16346;SDS011;8283;48.504;13.734;2024-03-02T09:35:43;19.45;;;11.85;;
16346;SDS011;8283;48.504;13.734;2024-03-02T09:38:02;21.70;;;12.27;;
16346;SDS011;8283;48.504;13.734;2024-03-02T09:40:22;17.90;;;11.55;;
16346;SDS011;8283;48.504;13.734;2024-03-02T09:42:41;20.15;;;12.90;;
16346;SDS011;8283;48.504;13.734;2024-03-02T09:45:01;19.50;;;12.40;;
16346;SDS011;8283;48.504;13.734;2024-03-02T09:47:21;18.75;;;12.45;;
16346;SDS011;8283;48.504;13.734;2024-03-02T09:49:41;18.30;;;12.63;;
16346;SDS011;8283;48.504;13.734;2024-03-02T09:52:00;18.90;;;12.10;;
16346;SDS011;8283;48.504;13.734;2024-03-02T09:54:21;16.23;;;10.88;;
16346;SDS011;8283;48.504;13.734;2024-03-02T09:56:41;21.27;;;12.18;;
16346;SDS011;8283;48.504;13.734;2024-03-02T09:59:01;19.00;;;11.98;;
16346;SDS011;8283;48.504;13.734;2024-03-02T10:01:20;17.10;;;11.73;;
16346;SDS011;8283;48.504;13.734;2024-03-02T10:03:40;19.52;;;12.85;;
16346;SDS011;8283;48.504;13.734;2024-03-02T10:06:18;17.75;;;11.88;;
16346;SDS011;8283;48.504;13.734;2024-03-02T10:08:44;17.90;;;11.70;;
16346;SDS011;8283;48.504;13.734;2024-03-02T10:11:03;17.42;;;11.50;;
16346;SDS011;8283;48.504;13.734;2024-03-02T10:13:23;16.20;;;11.18;;
16346;SDS011;8283;48.504;13.734;2024-03-02T10:18:04;13.68;;;10.30;;
16346;SDS011;8283;48.504;13.734;2024-03-02T10:20:24;14.38;;;10.63;;
16346;SDS011;8283;48.504;13.734;2024-03-02T10:22:44;17.08;;;10.63;;
16346;SDS011;8283;48.504;13.734;2024-03-02T10:25:04;15.23;;;9.98;;
16346;SDS011;8283;48.504;13.734;2024-03-02T10:27:26;17.60;;;10.77;;
16346;SDS011;8283;48.504;13.734;2024-03-02T10:29:46;16.25;;;10.73;;
16346;SDS011;8283;48.504;13.734;2024-03-02T10:32:09;17.10;;;11.02;;
16346;SDS011;8283;48.504;13.734;2024-03-02T10:34:32;15.70;;;11.27;;
16346;SDS011;8283;48.504;13.734;2024-03-02T10:36:51;15.85;;;10.30;;
16346;SDS011;8283;48.504;13.734;2024-03-02T10:39:11;17.40;;;10.82;;
16346;SDS011;8283;48.504;13.734;2024-03-02T10:41:34;17.70;;;12.02;;
16346;SDS011;8283;48.504;13.734;2024-03-02T10:43:54;17.00;;;11.27;;
16346;SDS011;8283;48.504;13.734;2024-03-02T10:46:19;17.45;;;11.02;;
16346;SDS011;8283;48.504;13.734;2024-03-02T10:48:39;17.58;;;11.77;;
16346;SDS011;8283;48.504;13.734;2024-03-02T10:50:59;15.27;;;10.55;;
16346;SDS011;8283;48.504;13.734;2024-03-02T10:53:20;15.07;;;10.15;;
16346;SDS011;8283;48.504;13.734;2024-03-02T10:55:39;13.13;;;9.52;;
16346;SDS011;8283;48.504;13.734;2024-03-02T10:57:58;13.00;;;9.15;;
16346;SDS011;8283;48.504;13.734;2024-03-02T11:00:21;15.60;;;9.55;;
16346;SDS011;8283;48.504;13.734;2024-03-02T11:02:52;16.55;;;10.40;;
16346;SDS011;8283;48.504;13.734;2024-03-02T11:07:41;14.18;;;9.90;;
16346;SDS011;8283;48.504;13.734;2024-03-02T11:10:01;15.48;;;10.18;;
16346;SDS011;8283;48.504;13.734;2024-03-02T11:14:53;15.90;;;10.82;;
16346;SDS011;8283;48.504;13.734;2024-03-02T11:17:14;14.80;;;10.52;;
16346;SDS011;8283;48.504;13.734;2024-03-02T11:19:35;14.68;;;9.75;;
16346;SDS011;8283;48.504;13.734;2024-03-02T11:21:56;12.25;;;9.02;;
16346;SDS011;8283;48.504;13.734;2024-03-02T11:26:51;14.32;;;10.07;;
16346;SDS011;8283;48.504;13.734;2024-03-02T11:29:19;12.68;;;8.90;;
16346;SDS011;8283;48.504;13.734;2024-03-02T11:32:00;14.88;;;10.80;;
16346;SDS011;8283;48.504;13.734;2024-03-02T11:34:32;15.27;;;9.65;;
16346;SDS011;8283;48.504;13.734;2024-03-02T11:36:53;14.50;;;10.07;;
16346;SDS011;8283;48.504;13.734;2024-03-02T11:39:12;16.73;;;10.80;;
16346;SDS011;8283;48.504;13.734;2024-03-02T11:41:32;17.33;;;10.50;;
16346;SDS011;8283;48.504;13.734;2024-03-02T11:43:52;13.73;;;9.48;;
16346;SDS011;8283;48.504;13.734;2024-03-02T11:46:11;15.30;;;10.05;;
16346;SDS011;8283;48.504;13.734;2024-03-02T11:48:32;11.88;;;9.00;;
16346;SDS011;8283;48.504;13.734;2024-03-02T11:50:53;15.63;;;10.18;;
16346;SDS011;8283;48.504;13.734;2024-03-02T11:53:18;14.18;;;10.35;;
16346;SDS011;8283;48.504;13.734;2024-03-02T11:55:39;12.57;;;9.27;;
16346;SDS011;8283;48.504;13.734;2024-03-02T11:58:05;13.40;;;9.65;;
16346;SDS011;8283;48.504;13.734;2024-03-02T12:00:24;14.23;;;9.27;;
16346;SDS011;8283;48.504;13.734;2024-03-02T12:02:43;13.63;;;9.85;;
16346;SDS011;8283;48.504;13.734;2024-03-02T12:05:08;12.50;;;8.68;;
16346;SDS011;8283;48.504;13.734;2024-03-02T12:07:28;12.68;;;8.48;;
16346;SDS011;8283;48.504;13.734;2024-03-02T12:09:49;13.50;;;10.00;;
16346;SDS011;8283;48.504;13.734;2024-03-02T12:12:17;11.93;;;8.65;;
16346;SDS011;8283;48.504;13.734;2024-03-02T12:14:41;13.40;;;9.35;;
16346;SDS011;8283;48.504;13.734;2024-03-02T12:17:14;12.50;;;8.60;;
16346;SDS011;8283;48.504;13.734;2024-03-02T12:19:33;15.35;;;9.55;;
16346;SDS011;8283;48.504;13.734;2024-03-02T12:21:53;13.13;;;9.27;;
16346;SDS011;8283;48.504;13.734;2024-03-02T12:24:13;12.53;;;8.27;;
16346;SDS011;8283;48.504;13.734;2024-03-02T12:26:33;11.30;;;8.52;;
16346;SDS011;8283;48.504;13.734;2024-03-02T12:28:52;11.93;;;8.18;;
16346;SDS011;8283;48.504;13.734;2024-03-02T12:31:11;10.52;;;7.80;;
16346;SDS011;8283;48.504;13.734;2024-03-02T12:33:30;14.20;;;9.27;;
16346;SDS011;8283;48.504;13.734;2024-03-02T12:35:50;10.98;;;7.82;;
16346;SDS011;8283;48.504;13.734;2024-03-02T12:38:09;12.43;;;8.68;;
16346;SDS011;8283;48.504;13.734;2024-03-02T12:40:30;13.57;;;8.73;;
16346;SDS011;8283;48.504;13.734;2024-03-02T12:42:49;11.90;;;8.38;;
16346;SDS011;8283;48.504;13.734;2024-03-02T12:45:09;12.27;;;8.63;;
16346;SDS011;8283;48.504;13.734;2024-03-02T12:47:29;11.50;;;9.23;;
16346;SDS011;8283;48.504;13.734;2024-03-02T12:49:49;11.27;;;8.43;;
16346;SDS011;8283;48.504;13.734;2024-03-02T12:52:12;11.10;;;7.82;;
16346;SDS011;8283;48.504;13.734;2024-03-02T12:56:51;11.52;;;7.47;;
16346;SDS011;8283;48.504;13.734;2024-03-02T13:01:49;9.68;;;7.25;;
16346;SDS011;8283;48.504;13.734;2024-03-02T13:04:12;12.80;;;8.00;;
16346;SDS011;8283;48.504;13.734;2024-03-02T13:06:32;11.60;;;7.80;;
16346;SDS011;8283;48.504;13.734;2024-03-02T13:08:52;9.00;;;7.03;;
16346;SDS011;8283;48.504;13.734;2024-03-02T13:11:12;11.55;;;7.72;;
16346;SDS011;8283;48.504;13.734;2024-03-02T13:13:32;10.48;;;7.32;;
16346;SDS011;8283;48.504;13.734;2024-03-02T13:15:56;11.85;;;7.65;;
16346;SDS011;8283;48.504;13.734;2024-03-02T13:18:17;10.68;;;6.90;;
16346;SDS011;8283;48.504;13.734;2024-03-02T13:20:38;13.18;;;8.35;;
16346;SDS011;8283;48.504;13.734;2024-03-02T13:25:18;8.77;;;7.22;;
16346;SDS011;8283;48.504;13.734;2024-03-02T13:27:38;12.60;;;7.33;;
16346;SDS011;8283;48.504;13.734;2024-03-02T13:29:57;11.45;;;7.72;;
16346;SDS011;8283;48.504;13.734;2024-03-02T13:32:17;12.70;;;9.20;;
16346;SDS011;8283;48.504;13.734;2024-03-02T13:34:42;12.27;;;8.40;;
16346;SDS011;8283;48.504;13.734;2024-03-02T13:37:02;12.02;;;8.88;;
16346;SDS011;8283;48.504;13.734;2024-03-02T13:41:42;16.08;;;9.35;;
16346;SDS011;8283;48.504;13.734;2024-03-02T13:44:10;14.77;;;9.13;;
16346;SDS011;8283;48.504;13.734;2024-03-02T13:46:29;12.57;;;8.63;;
16346;SDS011;8283;48.504;13.734;2024-03-02T13:48:49;11.85;;;8.13;;
16346;SDS011;8283;48.504;13.734;2024-03-02T13:51:10;12.68;;;9.18;;
16346;SDS011;8283;48.504;13.734;2024-03-02T13:53:29;12.77;;;8.88;;
16346;SDS011;8283;48.504;13.734;2024-03-02T13:55:48;12.98;;;8.68;;
16346;SDS011;8283;48.504;13.734;2024-03-02T13:58:07;15.18;;;10.43;;
16346;SDS011;8283;48.504;13.734;2024-03-02T14:00:27;12.80;;;9.02;;
16346;SDS011;8283;48.504;13.734;2024-03-02T14:02:47;19.00;;;11.40;;
16346;SDS011;8283;48.504;13.734;2024-03-02T14:05:10;14.13;;;9.55;;
16346;SDS011;8283;48.504;13.734;2024-03-02T14:07:30;15.82;;;9.98;;
16346;SDS011;8283;48.504;13.734;2024-03-02T14:09:49;15.75;;;10.82;;
16346;SDS011;8283;48.504;13.734;2024-03-02T14:12:09;14.43;;;9.80;;